Time;durP1;ratioP1;P1;durP2;ratioP2;P2;SDS_P1;SDS_P2;PMS_P1;PMS_P2;Temp;Humidity;BMP_temperature;BMP_pressure;BME280_temperature;BME280_humidity;BME280_pressure;Samples;Min_cycle;Max_cycle;Signal;HPM_P1;HPM_P2
2024/03/24 00:01:16;;;;;;;47.10;11.38;;;;;;;;;;5088615;28;20398;-41
2024/03/24 00:03:43;;;;;;;46.63;12.40;;;;;;;;;;5087997;28;20381;-42
2024/03/24 00:06:10;;;;;;;47.63;12.50;;;;;;;;;;5072598;28;20038;-41
2024/03/24 00:08:37;;;;;;;37.92;11.05;;;;;;;;;;5089746;28;20086;-40
2024/03/24 00:11:04;;;;;;;38.53;10.52;;;;;;;;;;5090967;28;20526;-40
2024/03/24 00:13:34;;;;;;;40.20;10.98;;;;;;;;;;5093648;28;20097;-40
2024/03/24 00:16:01;;;;;;;39.00;11.57;;;;;;;;;;5082971;28;20039;-42
2024/03/24 00:18:28;;;;;;;37.88;11.40;;;;;;;;;;5093717;28;20043;-43
2024/03/24 00:20:55;;;;;;;47.00;11.82;;;;;;;;;;5093602;28;20088;-43
2024/03/24 00:23:22;;;;;;;41.10;10.57;;;;;;;;;;5090288;28;20028;-43
2024/03/24 00:25:49;;;;;;;42.90;11.30;;;;;;;;;;5084149;28;20111;-44
2024/03/24 00:28:16;;;;;;;39.17;12.13;;;;;;;;;;5091828;28;20903;-43
2024/03/24 00:30:43;;;;;;;41.70;12.80;;;;;;;;;;5092030;28;20478;-43
2024/03/24 00:33:10;;;;;;;40.53;12.18;;;;;;;;;;5089143;28;20064;-42
2024/03/24 00:35:37;;;;;;;38.08;12.82;;;;;;;;;;5091829;28;20501;-43
2024/03/24 00:38:04;;;;;;;43.88;13.50;;;;;;;;;;5092971;28;20074;-44
2024/03/24 00:40:31;;;;;;;39.30;14.27;;;;;;;;;;5092748;28;20187;-42
2024/03/24 00:42:59;;;;;;;46.97;16.55;;;;;;;;;;5088331;28;20465;-42
2024/03/24 00:45:26;;;;;;;47.40;15.93;;;;;;;;;;5088381;28;20030;-42
2024/03/24 00:47:55;;;;;;;45.85;15.75;;;;;;;;;;5083820;28;20109;-42
2024/03/24 00:50:21;;;;;;;45.35;16.15;;;;;;;;;;5088408;28;20067;-44
2024/03/24 00:52:48;;;;;;;41.25;17.20;;;;;;;;;;5078680;28;20039;-44
2024/03/24 00:55:16;;;;;;;46.83;17.08;;;;;;;;;;5087228;28;20035;-42
2024/03/24 00:57:43;;;;;;;48.00;16.85;;;;;;;;;;5085223;28;20051;-42
2024/03/24 01:00:11;;;;;;;43.08;18.17;;;;;;;;;;5090587;28;20073;-43
2024/03/24 01:02:37;;;;;;;39.88;16.58;;;;;;;;;;5091935;28;20056;-43
2024/03/24 01:05:05;;;;;;;45.92;17.50;;;;;;;;;;5088466;28;20036;-42
2024/03/24 01:07:32;;;;;;;54.58;19.08;;;;;;;;;;5091269;28;20409;-42
2024/03/24 01:09:59;;;;;;;49.22;18.85;;;;;;;;;;5092038;28;20028;-43
2024/03/24 01:12:26;;;;;;;39.83;17.70;;;;;;;;;;5091305;28;20123;-42
2024/03/24 01:14:53;;;;;;;39.17;17.10;;;;;;;;;;5090364;28;20063;-42
2024/03/24 01:17:20;;;;;;;33.78;16.70;;;;;;;;;;5084282;28;20021;-42
2024/03/24 01:19:47;;;;;;;40.88;16.75;;;;;;;;;;5071792;28;20028;-42
2024/03/24 01:22:14;;;;;;;38.90;17.05;;;;;;;;;;5086371;28;20075;-43
2024/03/24 01:24:41;;;;;;;38.80;17.23;;;;;;;;;;5080877;28;20035;-41
2024/03/24 01:27:08;;;;;;;39.70;17.20;;;;;;;;;;5085274;28;20020;-42
2024/03/24 01:29:35;;;;;;;32.65;15.95;;;;;;;;;;5092524;28;20036;-42
2024/03/24 01:32:02;;;;;;;37.00;17.00;;;;;;;;;;5091784;28;20562;-42
2024/03/24 01:34:29;;;;;;;36.20;16.05;;;;;;;;;;5087465;28;20040;-43
2024/03/24 01:36:56;;;;;;;34.85;15.52;;;;;;;;;;5080743;28;20036;-42
2024/03/24 01:39:26;;;;;;;32.58;16.05;;;;;;;;;;5082593;28;20477;-42
2024/03/24 01:41:53;;;;;;;36.90;15.77;;;;;;;;;;5088863;28;20517;-42
2024/03/24 01:44:21;;;;;;;38.45;15.90;;;;;;;;;;5089235;28;20020;-44
2024/03/24 01:46:48;;;;;;;32.22;16.05;;;;;;;;;;5077166;28;20020;-45
2024/03/24 01:49:15;;;;;;;33.58;15.95;;;;;;;;;;5084216;28;20043;-45
2024/03/24 01:51:42;;;;;;;38.35;15.85;;;;;;;;;;5091335;28;20401;-43
2024/03/24 01:54:11;;;;;;;34.83;15.93;;;;;;;;;;5090832;28;20066;-42
2024/03/24 01:56:38;;;;;;;35.92;15.05;;;;;;;;;;5075723;28;20474;-44
2024/03/24 01:59:05;;;;;;;35.75;15.38;;;;;;;;;;5089743;28;20114;-46
2024/03/24 02:01:36;;;;;;;32.72;14.73;;;;;;;;;;5091488;28;20435;-45
2024/03/24 02:04:09;;;;;;;35.88;15.27;;;;;;;;;;5089678;28;20032;-45
2024/03/24 02:06:37;;;;;;;34.17;14.77;;;;;;;;;;5075882;28;20024;-43
2024/03/24 02:09:04;;;;;;;31.05;15.07;;;;;;;;;;5085101;28;20025;-43
2024/03/24 02:11:31;;;;;;;32.08;15.10;;;;;;;;;;5090486;28;20052;-46
2024/03/24 02:14:02;;;;;;;33.22;14.90;;;;;;;;;;5090947;28;20063;-44
2024/03/24 02:16:30;;;;;;;27.37;14.80;;;;;;;;;;5090681;28;20031;-47
2024/03/24 02:18:57;;;;;;;28.23;14.23;;;;;;;;;;5086709;28;20032;-45
2024/03/24 02:21:24;;;;;;;30.73;14.30;;;;;;;;;;5089934;28;20024;-43
2024/03/24 02:23:51;;;;;;;36.15;14.77;;;;;;;;;;5088868;28;20036;-45
2024/03/24 02:26:18;;;;;;;38.15;14.95;;;;;;;;;;5076389;28;20024;-43
2024/03/24 02:28:45;;;;;;;34.00;14.60;;;;;;;;;;5089683;28;20091;-44
2024/03/24 02:31:12;;;;;;;28.70;13.75;;;;;;;;;;5090657;28;20055;-44
2024/03/24 02:33:39;;;;;;;33.40;15.05;;;;;;;;;;5086655;28;20032;-46
2024/03/24 02:36:07;;;;;;;35.88;15.38;;;;;;;;;;5090904;28;20035;-45
2024/03/24 02:38:35;;;;;;;28.33;13.70;;;;;;;;;;5090435;28;20036;-45
2024/03/24 02:41:02;;;;;;;28.60;14.38;;;;;;;;;;5083457;28;20508;-44
2024/03/24 02:43:29;;;;;;;27.33;13.88;;;;;;;;;;5089848;28;20028;-44
2024/03/24 02:45:59;;;;;;;32.92;13.85;;;;;;;;;;5077122;28;20028;-46
2024/03/24 02:48:27;;;;;;;24.17;13.05;;;;;;;;;;5090794;28;20046;-45
2024/03/24 02:50:54;;;;;;;31.85;13.90;;;;;;;;;;5087739;28;20032;-44
2024/03/24 02:53:21;;;;;;;30.80;12.73;;;;;;;;;;5087464;28;20035;-44
2024/03/24 02:55:48;;;;;;;31.30;12.35;;;;;;;;;;5079960;28;20024;-43
2024/03/24 02:58:16;;;;;;;30.25;12.93;;;;;;;;;;5057323;28;20024;-44
2024/03/24 03:00:43;;;;;;;29.88;13.02;;;;;;;;;;5083476;28;20385;-44
2024/03/24 03:03:11;;;;;;;24.10;12.07;;;;;;;;;;5087793;28;20338;-45
2024/03/24 03:05:38;;;;;;;26.92;12.85;;;;;;;;;;5091506;28;20474;-44
2024/03/24 03:08:06;;;;;;;23.75;12.93;;;;;;;;;;5089870;28;20107;-45
2024/03/24 03:10:33;;;;;;;27.70;12.25;;;;;;;;;;5081366;28;20490;-44
2024/03/24 03:13:00;;;;;;;27.95;13.13;;;;;;;;;;5086714;28;20477;-44
2024/03/24 03:15:27;;;;;;;25.17;12.30;;;;;;;;;;5088601;28;20039;-45
2024/03/24 03:17:55;;;;;;;25.40;12.13;;;;;;;;;;5084433;28;20064;-44
2024/03/24 03:20:22;;;;;;;26.15;13.23;;;;;;;;;;5083473;28;20082;-45
2024/03/24 03:22:49;;;;;;;25.70;13.02;;;;;;;;;;5085175;28;20671;-44
2024/03/24 03:25:16;;;;;;;21.20;12.60;;;;;;;;;;5084191;28;20032;-44
2024/03/24 03:27:44;;;;;;;22.05;12.25;;;;;;;;;;5082631;28;20024;-43
2024/03/24 03:30:12;;;;;;;25.58;12.57;;;;;;;;;;5074152;28;20406;-44
2024/03/24 03:32:39;;;;;;;25.45;12.25;;;;;;;;;;5080373;28;20069;-44
2024/03/24 03:35:07;;;;;;;21.17;12.40;;;;;;;;;;5068878;28;20025;-44
2024/03/24 03:37:34;;;;;;;20.13;12.77;;;;;;;;;;5087121;28;20036;-45
2024/03/24 03:40:01;;;;;;;22.15;13.10;;;;;;;;;;5090030;28;20032;-46
2024/03/24 03:42:28;;;;;;;24.95;13.07;;;;;;;;;;5090472;28;20073;-44
2024/03/24 03:44:55;;;;;;;21.25;13.18;;;;;;;;;;5093148;28;20109;-44
2024/03/24 03:47:26;;;;;;;21.52;12.40;;;;;;;;;;5077966;28;20036;-48
2024/03/24 03:49:53;;;;;;;23.52;12.98;;;;;;;;;;5076925;28;20079;-46
2024/03/24 03:52:29;;;;;;;20.90;12.35;;;;;;;;;;5097896;28;20081;-44
2024/03/24 03:55:09;;;;;;;22.60;13.00;;;;;;;;;;5092694;28;20039;-44
2024/03/24 03:57:36;;;;;;;22.17;12.60;;;;;;;;;;5093723;28;20032;-44
2024/03/24 04:00:10;;;;;;;20.40;12.30;;;;;;;;;;5092030;28;20024;-44
2024/03/24 04:02:51;;;;;;;17.88;12.73;;;;;;;;;;5088623;28;20052;-43
2024/03/24 04:05:19;;;;;;;18.55;12.23;;;;;;;;;;5089738;28;20021;-45
2024/03/24 04:07:46;;;;;;;20.55;11.80;;;;;;;;;;5091255;28;20024;-44
2024/03/24 04:10:13;;;;;;;19.67;11.73;;;;;;;;;;5092098;28;20496;-44
2024/03/24 04:12:40;;;;;;;16.25;12.13;;;;;;;;;;5092942;28;20069;-45
2024/03/24 04:15:07;;;;;;;17.60;11.63;;;;;;;;;;5089016;28;20044;-44
2024/03/24 04:17:34;;;;;;;17.58;11.48;;;;;;;;;;5089923;28;20153;-46
2024/03/24 04:20:07;;;;;;;16.55;10.82;;;;;;;;;;5075134;28;20036;-46
2024/03/24 04:22:34;;;;;;;15.00;10.63;;;;;;;;;;5093586;28;20089;-44
2024/03/24 04:25:01;;;;;;;15.40;10.02;;;;;;;;;;5086376;28;20025;-45
2024/03/24 04:27:28;;;;;;;20.23;11.55;;;;;;;;;;5086653;28;20386;-43
2024/03/24 04:29:55;;;;;;;21.25;11.30;;;;;;;;;;5079894;28;20029;-45
2024/03/24 04:32:22;;;;;;;18.25;9.90;;;;;;;;;;5083540;28;20032;-44
2024/03/24 04:34:49;;;;;;;16.88;10.43;;;;;;;;;;5092359;28;20115;-44
2024/03/24 04:37:16;;;;;;;17.30;9.82;;;;;;;;;;5092884;28;20048;-44
2024/03/24 04:39:43;;;;;;;16.92;9.40;;;;;;;;;;5089884;28;20042;-46
2024/03/24 04:42:10;;;;;;;14.52;9.50;;;;;;;;;;5094379;28;20024;-44
2024/03/24 04:44:37;;;;;;;14.32;9.57;;;;;;;;;;5091283;28;20078;-44
2024/03/24 04:47:04;;;;;;;14.15;9.00;;;;;;;;;;5078979;28;20107;-44
2024/03/24 04:49:31;;;;;;;13.77;9.15;;;;;;;;;;5089157;28;20020;-44
2024/03/24 04:51:58;;;;;;;15.75;9.82;;;;;;;;;;5090849;28;20478;-44
2024/03/24 04:54:26;;;;;;;16.27;9.40;;;;;;;;;;5083631;28;20028;-45
2024/03/24 04:56:53;;;;;;;15.45;8.82;;;;;;;;;;5089636;28;20059;-47
2024/03/24 04:59:20;;;;;;;13.82;8.80;;;;;;;;;;5093308;28;20389;-44
2024/03/24 05:01:47;;;;;;;13.85;8.35;;;;;;;;;;5092114;28;20135;-44
2024/03/24 05:04:14;;;;;;;16.85;8.35;;;;;;;;;;5093894;28;20055;-44
2024/03/24 05:06:42;;;;;;;11.95;7.78;;;;;;;;;;5092403;28;20139;-46
2024/03/24 05:09:09;;;;;;;12.40;8.07;;;;;;;;;;5087548;28;20020;-45
2024/03/24 05:11:36;;;;;;;13.30;8.10;;;;;;;;;;5085474;28;20036;-48
2024/03/24 05:14:03;;;;;;;13.43;8.43;;;;;;;;;;5089907;28;20069;-44
2024/03/24 05:16:33;;;;;;;11.25;7.60;;;;;;;;;;5089794;28;20027;-44
2024/03/24 05:19:05;;;;;;;15.70;8.18;;;;;;;;;;5089548;28;20109;-44
2024/03/24 05:21:32;;;;;;;10.97;7.43;;;;;;;;;;5091523;28;20058;-43
2024/03/24 05:23:59;;;;;;;12.48;7.20;;;;;;;;;;5091757;28;20305;-44
2024/03/24 05:26:26;;;;;;;16.95;7.25;;;;;;;;;;5091155;28;20020;-44
2024/03/24 05:28:53;;;;;;;16.25;7.57;;;;;;;;;;5092197;28;20630;-43
2024/03/24 05:31:20;;;;;;;17.80;7.00;;;;;;;;;;5091332;28;20024;-43
2024/03/24 05:33:49;;;;;;;17.42;7.07;;;;;;;;;;5091324;28;20199;-43
2024/03/24 05:36:16;;;;;;;16.55;6.90;;;;;;;;;;5089234;28;20042;-44
2024/03/24 05:38:43;;;;;;;19.50;7.60;;;;;;;;;;5092379;28;20028;-44
2024/03/24 05:41:10;;;;;;;20.35;6.90;;;;;;;;;;5092024;28;20032;-44
2024/03/24 05:43:37;;;;;;;16.75;6.85;;;;;;;;;;5089490;28;20039;-44
2024/03/24 05:46:06;;;;;;;15.07;6.47;;;;;;;;;;5091620;28;20064;-44
2024/03/24 05:48:36;;;;;;;14.77;6.70;;;;;;;;;;5092108;28;20485;-45
2024/03/24 05:51:04;;;;;;;19.10;6.15;;;;;;;;;;5091803;28;20081;-43
2024/03/24 05:53:34;;;;;;;18.25;6.07;;;;;;;;;;5092015;28;20024;-43
2024/03/24 05:56:02;;;;;;;16.92;5.90;;;;;;;;;;5091782;28;20778;-43
2024/03/24 05:58:29;;;;;;;15.90;5.75;;;;;;;;;;5092081;28;20032;-43
2024/03/24 06:00:57;;;;;;;14.98;5.57;;;;;;;;;;5090430;28;20036;-44
2024/03/24 06:03:24;;;;;;;13.27;5.82;;;;;;;;;;5090682;28;20421;-43
2024/03/24 06:05:51;;;;;;;13.95;5.80;;;;;;;;;;5087981;28;20036;-44
2024/03/24 06:08:18;;;;;;;12.07;4.95;;;;;;;;;;5093323;28;20493;-43
2024/03/24 06:10:45;;;;;;;21.02;5.88;;;;;;;;;;5091796;28;20028;-43
2024/03/24 06:13:12;;;;;;;13.48;5.22;;;;;;;;;;5091889;28;20044;-46
2024/03/24 06:15:39;;;;;;;16.02;4.80;;;;;;;;;;5092185;28;20556;-44
2024/03/24 06:18:07;;;;;;;16.85;5.65;;;;;;;;;;5091422;28;20032;-44
2024/03/24 06:20:38;;;;;;;17.70;5.10;;;;;;;;;;5089786;28;20038;-43
2024/03/24 06:23:05;;;;;;;27.63;5.05;;;;;;;;;;5087660;28;20028;-44
2024/03/24 06:25:32;;;;;;;22.67;4.85;;;;;;;;;;5083115;28;20031;-43
2024/03/24 06:28:01;;;;;;;22.27;5.35;;;;;;;;;;5091129;28;20385;-43
2024/03/24 06:30:28;;;;;;;14.75;4.50;;;;;;;;;;5090884;28;20034;-43
2024/03/24 06:32:56;;;;;;;28.58;5.45;;;;;;;;;;5091623;28;20044;-44
2024/03/24 06:35:23;;;;;;;20.52;4.88;;;;;;;;;;5091573;28;20024;-44
2024/03/24 06:37:50;;;;;;;17.25;4.65;;;;;;;;;;5091382;28;20039;-46
2024/03/24 06:40:17;;;;;;;19.08;4.43;;;;;;;;;;5091546;28;20039;-43
2024/03/24 06:42:48;;;;;;;20.90;4.30;;;;;;;;;;5090876;28;20394;-43
2024/03/24 06:45:15;;;;;;;13.40;4.20;;;;;;;;;;5091742;28;20051;-44
2024/03/24 06:47:43;;;;;;;17.55;4.07;;;;;;;;;;5091327;28;20050;-44
2024/03/24 06:50:10;;;;;;;11.50;3.80;;;;;;;;;;5090887;28;20821;-43
2024/03/24 06:52:37;;;;;;;12.55;3.63;;;;;;;;;;5090860;28;20032;-44
2024/03/24 06:55:06;;;;;;;13.68;3.70;;;;;;;;;;5080164;28;20044;-42
2024/03/24 06:57:33;;;;;;;15.05;3.60;;;;;;;;;;5089251;28;20032;-44
2024/03/24 07:00:00;;;;;;;8.02;3.53;;;;;;;;;;5089917;28;20085;-46
2024/03/24 07:02:27;;;;;;;16.58;3.80;;;;;;;;;;5089673;28;20040;-44
2024/03/24 07:04:54;;;;;;;6.65;3.53;;;;;;;;;;5090329;28;20477;-45
2024/03/24 07:07:21;;;;;;;11.73;3.97;;;;;;;;;;5089877;28;20048;-44
2024/03/24 07:09:48;;;;;;;7.80;3.55;;;;;;;;;;5084712;28;20072;-43
2024/03/24 07:12:15;;;;;;;14.38;3.60;;;;;;;;;;5090696;28;20066;-44
2024/03/24 07:14:42;;;;;;;10.40;3.72;;;;;;;;;;5090355;28;20028;-43
2024/03/24 07:17:09;;;;;;;8.25;3.45;;;;;;;;;;5089689;28;20103;-43
2024/03/24 07:19:38;;;;;;;6.03;2.80;;;;;;;;;;5090691;28;20067;-43
2024/03/24 07:22:07;;;;;;;13.45;4.07;;;;;;;;;;5090142;28;20378;-44
2024/03/24 07:24:33;;;;;;;10.00;3.50;;;;;;;;;;5086556;28;20024;-44
2024/03/24 07:27:02;;;;;;;6.88;3.15;;;;;;;;;;5090530;28;20028;-46
2024/03/24 07:29:29;;;;;;;6.22;2.60;;;;;;;;;;5090521;28;20028;-43
2024/03/24 07:31:56;;;;;;;8.82;3.53;;;;;;;;;;5090168;28;20094;-43
2024/03/24 07:34:23;;;;;;;10.18;3.20;;;;;;;;;;5081002;28;20035;-43
2024/03/24 07:36:52;;;;;;;7.20;2.95;;;;;;;;;;5072666;28;20060;-43
2024/03/24 07:39:19;;;;;;;7.32;2.88;;;;;;;;;;5084964;28;20489;-43
2024/03/24 07:41:46;;;;;;;6.32;2.55;;;;;;;;;;5090419;28;20466;-43
2024/03/24 07:44:14;;;;;;;7.78;3.13;;;;;;;;;;5089167;28;20453;-43
2024/03/24 07:46:41;;;;;;;4.72;2.60;;;;;;;;;;5089522;28;20035;-43
2024/03/24 07:49:09;;;;;;;6.07;2.92;;;;;;;;;;5088619;28;20103;-44
2024/03/24 07:51:37;;;;;;;6.35;3.00;;;;;;;;;;5088336;28;20104;-43
2024/03/24 07:54:05;;;;;;;4.93;2.53;;;;;;;;;;5082633;28;20544;-44
2024/03/24 07:56:32;;;;;;;8.82;2.90;;;;;;;;;;5082477;28;20036;-44
2024/03/24 07:58:59;;;;;;;5.45;2.55;;;;;;;;;;5085048;28;20032;-43
2024/03/24 08:01:26;;;;;;;7.07;2.60;;;;;;;;;;5082786;28;20053;-43
2024/03/24 08:03:53;;;;;;;7.25;2.72;;;;;;;;;;5080814;28;20028;-47
2024/03/24 08:06:20;;;;;;;5.15;2.53;;;;;;;;;;5078235;28;20066;-42
2024/03/24 08:08:47;;;;;;;6.25;3.25;;;;;;;;;;5089703;28;20028;-43
2024/03/24 08:11:15;;;;;;;6.88;2.90;;;;;;;;;;5090268;28;20393;-42
2024/03/24 08:13:42;;;;;;;4.85;2.55;;;;;;;;;;5090383;28;20093;-42
2024/03/24 08:16:09;;;;;;;5.55;2.55;;;;;;;;;;5089889;28;20035;-43
2024/03/24 08:18:37;;;;;;;6.60;2.58;;;;;;;;;;5089986;28;20035;-43
2024/03/24 08:21:05;;;;;;;5.30;2.65;;;;;;;;;;5090311;28;20114;-43
2024/03/24 08:23:32;;;;;;;4.57;2.40;;;;;;;;;;5088537;28;20085;-43
2024/03/24 08:25:59;;;;;;;6.00;2.50;;;;;;;;;;5085841;28;20366;-43
2024/03/24 08:28:26;;;;;;;5.32;2.53;;;;;;;;;;5093275;28;20023;-42
2024/03/24 08:30:54;;;;;;;5.60;2.72;;;;;;;;;;5093621;28;20024;-44
2024/03/24 08:33:21;;;;;;;6.13;2.70;;;;;;;;;;5093721;28;20098;-43
2024/03/24 08:35:48;;;;;;;5.93;2.40;;;;;;;;;;5094035;28;20077;-42
2024/03/24 08:38:16;;;;;;;6.75;2.72;;;;;;;;;;5092418;28;20032;-43
2024/03/24 08:40:43;;;;;;;8.70;2.70;;;;;;;;;;5093331;28;20103;-43
2024/03/24 08:43:10;;;;;;;7.15;2.17;;;;;;;;;;5080630;28;20020;-43
2024/03/24 08:45:37;;;;;;;5.65;2.42;;;;;;;;;;5093196;28;20028;-46
2024/03/24 08:48:05;;;;;;;4.35;2.28;;;;;;;;;;5093317;28;20058;-43
2024/03/24 08:50:32;;;;;;;5.97;2.35;;;;;;;;;;5093398;28;20040;-45
2024/03/24 08:52:59;;;;;;;5.20;2.38;;;;;;;;;;5092353;28;20506;-43
2024/03/24 08:55:26;;;;;;;5.47;2.17;;;;;;;;;;5078603;28;20111;-43
2024/03/24 08:57:53;;;;;;;5.30;2.30;;;;;;;;;;5092534;28;20032;-44
2024/03/24 09:00:20;;;;;;;4.60;2.38;;;;;;;;;;5093266;28;20028;-43
2024/03/24 09:02:47;;;;;;;4.55;2.40;;;;;;;;;;5093435;28;20083;-43
2024/03/24 09:05:14;;;;;;;8.18;2.38;;;;;;;;;;5093245;28;20098;-42
2024/03/24 09:07:41;;;;;;;3.75;2.03;;;;;;;;;;5089105;28;20067;-43
2024/03/24 09:10:08;;;;;;;5.88;2.38;;;;;;;;;;5092607;28;20509;-44
2024/03/24 09:12:36;;;;;;;5.18;2.25;;;;;;;;;;5092925;28;20043;-43
2024/03/24 09:15:03;;;;;;;5.25;2.50;;;;;;;;;;5093103;28;20125;-44
2024/03/24 09:17:30;;;;;;;3.65;2.00;;;;;;;;;;5092747;28;20465;-44
2024/03/24 09:19:57;;;;;;;3.83;2.10;;;;;;;;;;5097482;28;20423;-43
2024/03/24 09:22:24;;;;;;;5.10;2.50;;;;;;;;;;5092995;28;20088;-43
2024/03/24 09:24:51;;;;;;;4.03;1.90;;;;;;;;;;5084762;28;20035;-44
2024/03/24 09:27:18;;;;;;;5.15;2.10;;;;;;;;;;5083355;28;20043;-44
2024/03/24 09:29:45;;;;;;;6.80;2.35;;;;;;;;;;5092544;28;20111;-43
2024/03/24 09:32:12;;;;;;;4.88;2.40;;;;;;;;;;5092503;28;20155;-43
2024/03/24 09:34:41;;;;;;;3.67;2.10;;;;;;;;;;5092589;28;20036;-43
2024/03/24 09:37:08;;;;;;;7.93;2.25;;;;;;;;;;5092635;28;20071;-44
2024/03/24 09:39:35;;;;;;;3.85;2.00;;;;;;;;;;5091225;28;20064;-43
2024/03/24 09:42:04;;;;;;;4.88;2.20;;;;;;;;;;5092723;28;20032;-43
2024/03/24 09:44:32;;;;;;;6.03;2.30;;;;;;;;;;5092496;28;20038;-44
2024/03/24 09:46:59;;;;;;;4.65;2.10;;;;;;;;;;5092638;28;20082;-43
2024/03/24 09:49:27;;;;;;;3.50;1.85;;;;;;;;;;5091556;28;20489;-44
2024/03/24 09:51:55;;;;;;;4.00;2.05;;;;;;;;;;5092096;28;20040;-44
2024/03/24 09:54:22;;;;;;;4.20;2.15;;;;;;;;;;5086938;28;20563;-45
2024/03/24 09:56:51;;;;;;;3.55;1.75;;;;;;;;;;5084384;28;20031;-43
2024/03/24 09:59:19;;;;;;;4.70;2.00;;;;;;;;;;5091997;28;20024;-45
2024/03/24 10:01:47;;;;;;;5.07;1.58;;;;;;;;;;5092337;28;20119;-43
2024/03/24 10:04:15;;;;;;;4.05;1.90;;;;;;;;;;5091831;28;20031;-44
2024/03/24 10:06:42;;;;;;;3.45;1.92;;;;;;;;;;5091590;28;20035;-45
2024/03/24 10:09:09;;;;;;;3.90;2.00;;;;;;;;;;5091809;28;20036;-44
2024/03/24 10:11:36;;;;;;;3.95;1.73;;;;;;;;;;5091290;28;20142;-44
2024/03/24 10:14:08;;;;;;;5.13;2.20;;;;;;;;;;5091811;28;20036;-44
2024/03/24 10:16:35;;;;;;;6.32;1.90;;;;;;;;;;5091709;28;20032;-43
2024/03/24 10:19:12;;;;;;;4.80;1.90;;;;;;;;;;5092162;28;20500;-43
2024/03/24 10:21:39;;;;;;;5.10;2.03;;;;;;;;;;5091992;28;20036;-43
2024/03/24 10:24:07;;;;;;;5.22;1.73;;;;;;;;;;5091656;28;20165;-43
2024/03/24 10:26:38;;;;;;;4.80;2.00;;;;;;;;;;5091751;28;20024;-45
2024/03/24 10:29:05;;;;;;;4.90;1.88;;;;;;;;;;5079788;28;20043;-43
2024/03/24 10:31:35;;;;;;;4.47;2.30;;;;;;;;;;5088724;28;20086;-44
2024/03/24 10:34:05;;;;;;;5.47;2.20;;;;;;;;;;5091715;28;20046;-43
2024/03/24 10:36:32;;;;;;;3.40;1.80;;;;;;;;;;5091289;28;20039;-43
2024/03/24 10:39:08;;;;;;;3.38;1.85;;;;;;;;;;5091685;28;20036;-43
2024/03/24 10:41:35;;;;;;;2.75;2.00;;;;;;;;;;5091814;28;20035;-43
2024/03/24 10:44:03;;;;;;;5.03;2.00;;;;;;;;;;5091375;28;20058;-46
2024/03/24 10:46:33;;;;;;;3.20;1.60;;;;;;;;;;5091497;28;20094;-43
2024/03/24 10:49:01;;;;;;;2.45;1.63;;;;;;;;;;5091302;28;20032;-44
2024/03/24 10:51:31;;;;;;;3.05;1.63;;;;;;;;;;5091451;28;20039;-43
2024/03/24 10:54:03;;;;;;;3.97;1.95;;;;;;;;;;5091234;28;20067;-45
2024/03/24 10:56:34;;;;;;;5.40;2.20;;;;;;;;;;5089877;28;20028;-43
2024/03/24 10:59:02;;;;;;;3.67;1.77;;;;;;;;;;5072451;28;20489;-43
2024/03/24 11:01:30;;;;;;;5.25;1.77;;;;;;;;;;5082936;28;20040;-43
2024/03/24 11:04:00;;;;;;;3.75;2.10;;;;;;;;;;5090990;28;20031;-44
2024/03/24 11:06:30;;;;;;;3.70;1.45;;;;;;;;;;5091083;28;20039;-43
2024/03/24 11:08:57;;;;;;;3.15;1.70;;;;;;;;;;5090425;28;20031;-43
2024/03/24 11:11:24;;;;;;;2.45;1.60;;;;;;;;;;5091137;28;20036;-43
2024/03/24 11:13:52;;;;;;;4.32;1.90;;;;;;;;;;5090952;28;20055;-46
2024/03/24 11:16:22;;;;;;;3.67;1.80;;;;;;;;;;5091137;28;20031;-43
2024/03/24 11:18:49;;;;;;;4.63;1.80;;;;;;;;;;5090864;28;20053;-43
2024/03/24 11:21:34;;;;;;;3.78;1.88;;;;;;;;;;5091086;28;20032;-44
2024/03/24 11:24:02;;;;;;;4.18;1.70;;;;;;;;;;5079975;28;20028;-43
2024/03/24 11:26:29;;;;;;;3.95;1.67;;;;;;;;;;5090915;28;20035;-43
2024/03/24 11:28:56;;;;;;;2.88;1.73;;;;;;;;;;5086735;28;20551;-44
2024/03/24 11:31:23;;;;;;;3.65;1.70;;;;;;;;;;5082692;28;20043;-43
2024/03/24 11:34:01;;;;;;;4.05;2.00;;;;;;;;;;5086733;28;20029;-43
2024/03/24 11:36:28;;;;;;;4.43;2.00;;;;;;;;;;5088056;28;20589;-42
2024/03/24 11:38:55;;;;;;;6.72;1.75;;;;;;;;;;5089390;28;20375;-42
2024/03/24 11:41:25;;;;;;;5.43;1.75;;;;;;;;;;5089232;28;20032;-44
2024/03/24 11:43:53;;;;;;;4.20;1.63;;;;;;;;;;5090234;28;20059;-48
2024/03/24 11:46:20;;;;;;;3.00;1.67;;;;;;;;;;5090483;28;20704;-43
2024/03/24 11:48:48;;;;;;;3.58;1.60;;;;;;;;;;5090436;28;20028;-43
2024/03/24 11:51:16;;;;;;;4.03;1.77;;;;;;;;;;5090375;28;20435;-44
2024/03/24 11:53:43;;;;;;;2.60;1.40;;;;;;;;;;5088449;28;20048;-43
2024/03/24 11:56:11;;;;;;;3.22;1.42;;;;;;;;;;5089212;28;20438;-44
2024/03/24 11:58:38;;;;;;;5.50;1.50;;;;;;;;;;5085137;28;20059;-44
2024/03/24 12:01:08;;;;;;;3.47;1.80;;;;;;;;;;5085984;28;20056;-43
2024/03/24 12:03:35;;;;;;;4.63;1.95;;;;;;;;;;5089759;28;20032;-43
2024/03/24 12:06:04;;;;;;;4.00;1.38;;;;;;;;;;5083081;28;20032;-43
2024/03/24 12:08:31;;;;;;;7.47;2.00;;;;;;;;;;5090933;28;20561;-43
2024/03/24 12:10:58;;;;;;;4.95;1.23;;;;;;;;;;5092263;28;20062;-43
2024/03/24 12:13:25;;;;;;;5.32;1.60;;;;;;;;;;5087147;28;20032;-43
2024/03/24 12:15:52;;;;;;;4.80;1.50;;;;;;;;;;5084976;28;20352;-44
2024/03/24 12:18:19;;;;;;;3.95;1.70;;;;;;;;;;5088711;28;20028;-45
2024/03/24 12:20:51;;;;;;;4.28;1.52;;;;;;;;;;5092401;28;20036;-43
2024/03/24 12:23:18;;;;;;;3.42;1.40;;;;;;;;;;5093548;28;20053;-44
2024/03/24 12:25:46;;;;;;;4.38;1.30;;;;;;;;;;5090156;28;20081;-44
2024/03/24 12:28:20;;;;;;;8.40;1.48;;;;;;;;;;5091364;28;20047;-44
2024/03/24 12:30:53;;;;;;;6.28;1.58;;;;;;;;;;5079906;28;20035;-45
2024/03/24 12:33:20;;;;;;;4.60;1.60;;;;;;;;;;5075331;28;20044;-43
2024/03/24 12:35:48;;;;;;;5.72;1.40;;;;;;;;;;5093853;28;20028;-44
2024/03/24 12:38:16;;;;;;;3.75;1.35;;;;;;;;;;5093441;28;20039;-43
2024/03/24 12:40:49;;;;;;;4.03;1.35;;;;;;;;;;5093634;28;20113;-44
2024/03/24 12:43:17;;;;;;;3.70;1.38;;;;;;;;;;5090424;28;20031;-43
2024/03/24 12:45:51;;;;;;;4.88;1.42;;;;;;;;;;5088718;28;20028;-44
2024/03/24 12:48:18;;;;;;;2.90;1.33;;;;;;;;;;5090576;28;20034;-44
2024/03/24 12:50:46;;;;;;;6.03;1.30;;;;;;;;;;5091147;28;20592;-44
2024/03/24 12:53:16;;;;;;;3.40;1.20;;;;;;;;;;5088235;28;20400;-45
2024/03/24 12:55:44;;;;;;;4.95;1.10;;;;;;;;;;5092396;28;20090;-43
2024/03/24 12:58:13;;;;;;;6.25;1.45;;;;;;;;;;5092773;28;20028;-44
2024/03/24 13:00:43;;;;;;;4.07;1.10;;;;;;;;;;5078552;28;20089;-44
2024/03/24 13:03:11;;;;;;;4.05;1.20;;;;;;;;;;5092560;28;20048;-44
2024/03/24 13:05:38;;;;;;;2.70;0.93;;;;;;;;;;5093309;28;20031;-44
2024/03/24 13:08:06;;;;;;;3.90;1.20;;;;;;;;;;5092373;28;20036;-44
2024/03/24 13:10:33;;;;;;;2.30;0.93;;;;;;;;;;5092965;28;20090;-45
2024/03/24 13:13:01;;;;;;;3.00;1.00;;;;;;;;;;5091549;28;20044;-44
2024/03/24 13:15:34;;;;;;;3.05;1.17;;;;;;;;;;5092498;28;20081;-47
2024/03/24 13:18:03;;;;;;;1.88;0.82;;;;;;;;;;5088423;28;20020;-43
2024/03/24 13:20:30;;;;;;;5.00;1.02;;;;;;;;;;5087145;28;20386;-43
2024/03/24 13:22:58;;;;;;;2.33;0.77;;;;;;;;;;5087554;28;20024;-44
2024/03/24 13:25:26;;;;;;;4.25;1.10;;;;;;;;;;5079790;28;20434;-43
2024/03/24 13:28:03;;;;;;;3.03;0.90;;;;;;;;;;5092728;28;20043;-46
2024/03/24 13:30:31;;;;;;;2.80;0.93;;;;;;;;;;5088577;28;20539;-43
2024/03/24 13:33:00;;;;;;;5.55;0.90;;;;;;;;;;5092809;28;20064;-46
2024/03/24 13:35:28;;;;;;;2.25;0.80;;;;;;;;;;5089013;28;20016;-45
2024/03/24 13:37:55;;;;;;;1.38;0.65;;;;;;;;;;5088134;28;20424;-45
2024/03/24 13:40:22;;;;;;;1.83;0.90;;;;;;;;;;5080340;28;20086;-43
2024/03/24 13:43:25;;;;;;;1.50;0.98;;;;;;;;;;5083462;28;20036;-45
2024/03/24 13:45:59;;;;;;;3.28;0.90;;;;;;;;;;5010068;28;20042;-48
2024/03/24 13:48:27;;;;;;;5.13;0.90;;;;;;;;;;5080021;28;20122;-45
2024/03/24 13:50:55;;;;;;;2.17;0.70;;;;;;;;;;5087958;28;20036;-43
2024/03/24 13:53:23;;;;;;;2.45;0.77;;;;;;;;;;5090257;28;20034;-43
2024/03/24 13:55:50;;;;;;;7.22;1.00;;;;;;;;;;5089707;28;20026;-44
2024/03/24 13:58:17;;;;;;;4.43;0.88;;;;;;;;;;5084115;28;20093;-46
2024/03/24 14:00:44;;;;;;;4.00;0.82;;;;;;;;;;5081039;28;20032;-45
2024/03/24 14:03:11;;;;;;;3.05;0.80;;;;;;;;;;5085434;28;20032;-43
2024/03/24 14:05:38;;;;;;;3.05;0.70;;;;;;;;;;5082612;28;20024;-43
2024/03/24 14:08:05;;;;;;;3.75;1.05;;;;;;;;;;5088563;28;20034;-44
2024/03/24 14:10:32;;;;;;;2.22;0.77;;;;;;;;;;5083137;28;20046;-43
2024/03/24 14:13:17;;;;;;;4.82;0.90;;;;;;;;;;5091984;28;20093;-44
2024/03/24 14:16:03;;;;;;;4.93;0.90;;;;;;;;;;5061450;28;20436;-44
2024/03/24 14:18:35;;;;;;;1.55;0.70;;;;;;;;;;5085560;28;20161;-43
2024/03/24 14:21:05;;;;;;;5.47;1.33;;;;;;;;;;5082185;28;20036;-43
2024/03/24 14:23:50;;;;;;;5.22;1.02;;;;;;;;;;5085020;28;20039;-45
2024/03/24 14:26:17;;;;;;;11.85;1.20;;;;;;;;;;5083906;28;20028;-42
2024/03/24 14:28:45;;;;;;;7.60;1.25;;;;;;;;;;5076053;28;20417;-40
2024/03/24 14:31:15;;;;;;;4.93;0.90;;;;;;;;;;5082441;28;20040;-42
2024/03/24 14:33:42;;;;;;;4.75;1.02;;;;;;;;;;5074769;28;20044;-42
2024/03/24 14:36:27;;;;;;;5.35;1.10;;;;;;;;;;5075232;28;20035;-42
2024/03/24 14:38:57;;;;;;;12.80;1.75;;;;;;;;;;5066672;28;20081;-41